createdAt,value
2023-03-19T00:01:32.829Z,8.18
2023-03-19T00:05:36.147Z,9.45
2023-03-19T00:09:39.650Z,9.40
2023-03-19T00:13:44.075Z,10.80
2023-03-19T00:17:47.134Z,9.73
2023-03-19T00:21:50.247Z,9.48
2023-03-19T00:25:55.603Z,11.00
2023-03-19T00:30:00.361Z,7.93
2023-03-19T00:34:03.642Z,11.15
2023-03-19T00:38:07.043Z,11.35
2023-03-19T00:42:10.571Z,8.23
2023-03-19T00:46:15.827Z,7.85
2023-03-19T00:50:20.154Z,9.45
2023-03-19T00:54:23.171Z,9.55
2023-03-19T00:58:26.409Z,7.53
2023-03-19T01:02:32.105Z,12.77
2023-03-19T01:06:35.139Z,7.93
2023-03-19T01:10:38.238Z,8.10
2023-03-19T01:14:41.580Z,10.45
2023-03-19T01:18:46.680Z,6.82
2023-03-19T01:22:49.734Z,8.68
2023-03-19T01:26:53.024Z,8.63
2023-03-19T01:31:07.941Z,8.43
2023-03-19T01:35:39.769Z,8.25
2023-03-19T01:39:43.198Z,7.70
2023-03-19T01:43:48.888Z,7.13
2023-03-19T01:48:22.254Z,7.68
2023-03-19T01:52:37.948Z,7.95
2023-03-19T01:57:09.373Z,8.10
2023-03-19T02:01:51.802Z,9.50
2023-03-19T02:05:57.802Z,10.73
2023-03-19T02:10:04.593Z,10.02
2023-03-19T02:14:09.702Z,7.20
2023-03-19T02:18:14.222Z,10.55
2023-03-19T02:22:22.725Z,7.55
2023-03-19T02:26:30.920Z,9.27
2023-03-19T02:30:39.336Z,8.65
2023-03-19T02:34:46.611Z,8.45
2023-03-19T02:38:50.916Z,8.65
2023-03-19T02:42:55.342Z,8.05
2023-03-19T02:46:59.685Z,7.60
2023-03-19T02:51:02.921Z,7.07
2023-03-19T02:55:08.084Z,9.98
2023-03-19T02:59:13.336Z,7.45
2023-03-19T03:03:17.280Z,7.45
2023-03-19T03:07:20.996Z,8.40
2023-03-19T03:11:24.116Z,10.07
2023-03-19T03:15:29.170Z,8.88
2023-03-19T03:19:32.512Z,7.80
2023-03-19T03:23:35.557Z,8.23
2023-03-19T03:27:39.298Z,8.75
2023-03-19T03:31:43.787Z,8.48
2023-03-19T03:35:47.253Z,10.02
2023-03-19T03:39:51.019Z,9.80
2023-03-19T03:43:55.080Z,9.07
2023-03-19T03:47:59.540Z,10.02
2023-03-19T03:52:02.612Z,7.70
2023-03-19T03:56:06.600Z,7.95
2023-03-19T04:00:11.197Z,8.95
2023-03-19T04:04:18.740Z,7.88
2023-03-19T04:08:21.901Z,7.25
2023-03-19T04:12:25.066Z,8.30
2023-03-19T04:16:28.809Z,9.60
2023-03-19T04:20:34.232Z,9.73
2023-03-19T04:24:37.839Z,8.60
2023-03-19T04:28:41.105Z,8.70
2023-03-19T04:32:45.461Z,9.20
2023-03-19T04:36:50.942Z,8.90
2023-03-19T04:40:54.314Z,9.07
2023-03-19T04:44:57.760Z,8.98
2023-03-19T04:49:01.501Z,7.95
2023-03-19T04:53:08.001Z,8.52
2023-03-19T04:57:12.534Z,8.70
2023-03-19T05:01:18.303Z,10.35
2023-03-19T05:05:34.658Z,9.13
2023-03-19T05:09:46.246Z,8.18
2023-03-19T05:13:50.395Z,8.02
2023-03-19T05:17:53.841Z,11.43
2023-03-19T05:22:06.401Z,10.00
2023-03-19T05:26:11.676Z,8.82
2023-03-19T05:30:50.343Z,8.98
2023-03-19T05:34:58.448Z,9.20
2023-03-19T05:39:03.991Z,9.75
2023-03-19T05:43:13.338Z,10.20
2023-03-19T05:47:17.366Z,8.55
2023-03-19T05:51:26.483Z,11.27
2023-03-19T05:55:29.988Z,11.63
2023-03-19T05:59:40.785Z,13.30
2023-03-19T06:04:15.987Z,10.32
2023-03-19T06:08:20.154Z,10.15
2023-03-19T06:12:33.430Z,9.35
2023-03-19T06:17:10.298Z,9.45
2023-03-19T06:21:14.479Z,8.43
2023-03-19T06:25:17.689Z,11.60
2023-03-19T06:29:20.775Z,9.68
2023-03-19T06:33:33.757Z,10.07
2023-03-19T06:37:37.794Z,9.15
2023-03-19T06:41:41.996Z,9.73
2023-03-19T06:45:50.719Z,12.38
2023-03-19T06:49:55.397Z,9.82
2023-03-19T06:53:58.419Z,11.35
2023-03-19T06:58:01.460Z,11.40
2023-03-19T07:02:05.588Z,12.60
2023-03-19T07:06:10.322Z,12.35
2023-03-19T07:10:13.812Z,10.13
2023-03-19T07:14:16.829Z,11.18
2023-03-19T07:18:19.870Z,8.77
2023-03-19T07:22:24.267Z,10.65
2023-03-19T07:26:27.741Z,11.10
2023-03-19T07:30:30.836Z,10.23
2023-03-19T07:34:33.891Z,11.52
2023-03-19T07:38:38.542Z,10.63
2023-03-19T07:42:44.950Z,10.55
2023-03-19T07:46:48.880Z,10.90
2023-03-19T07:50:52.657Z,11.55
2023-03-19T07:54:57.407Z,10.75
2023-03-19T07:59:00.815Z,10.45
2023-03-19T08:03:03.876Z,11.32
2023-03-19T08:07:07.176Z,10.07
2023-03-19T08:11:11.818Z,12.40
2023-03-19T08:15:14.827Z,10.25
2023-03-19T08:19:18.765Z,10.23
2023-03-19T08:23:21.979Z,9.25
2023-03-19T08:27:26.705Z,9.13
2023-03-19T08:31:30.504Z,11.52
2023-03-19T08:35:33.590Z,12.77
2023-03-19T08:39:36.630Z,8.95
2023-03-19T08:43:41.322Z,8.43
2023-03-19T08:47:44.926Z,12.27
2023-03-19T08:51:48.466Z,11.23
2023-03-19T08:55:55.199Z,10.43
2023-03-19T08:59:59.663Z,9.50
2023-03-19T09:04:02.653Z,10.27
2023-03-19T09:08:05.998Z,11.55
2023-03-19T09:12:10.496Z,10.05
2023-03-19T09:16:15.010Z,10.98
2023-03-19T09:20:18.252Z,10.35
2023-03-19T09:24:21.472Z,14.65
2023-03-19T09:28:25.764Z,10.25
2023-03-19T09:32:30.261Z,11.40
2023-03-19T09:36:33.279Z,9.50
2023-03-19T09:40:40.084Z,9.63
2023-03-19T09:44:46.234Z,10.82
2023-03-19T09:48:57.535Z,10.38
2023-03-19T09:53:06.815Z,11.48
2023-03-19T09:57:13.140Z,11.05
2023-03-19T10:01:26.726Z,10.35
2023-03-19T10:05:43.558Z,11.43
2023-03-19T10:10:00.051Z,9.40
2023-03-19T10:14:19.193Z,11.82
2023-03-19T10:18:27.170Z,13.20
2023-03-19T10:22:37.105Z,9.75
2023-03-19T10:26:40.764Z,10.05
2023-03-19T10:30:49.667Z,11.20
2023-03-19T10:34:54.049Z,13.07
2023-03-19T10:38:58.597Z,10.85
2023-03-19T10:43:14.594Z,10.60
2023-03-19T10:47:20.073Z,10.02
2023-03-19T10:51:27.084Z,10.02
2023-03-19T10:55:33.263Z,11.70
2023-03-19T10:59:39.352Z,9.45
2023-03-19T11:03:52.753Z,10.27
2023-03-19T11:08:01.283Z,10.00
2023-03-19T11:12:17.970Z,9.25
2023-03-19T11:16:21.032Z,12.88
2023-03-19T11:20:28.669Z,9.77
2023-03-19T11:24:37.540Z,9.70
2023-03-19T11:28:44.717Z,8.60
2023-03-19T11:33:21.149Z,9.55
2023-03-19T11:37:32.588Z,10.02
2023-03-19T11:41:52.492Z,10.93
2023-03-19T11:46:05.146Z,9.88
2023-03-19T11:50:20.386Z,9.75
2023-03-19T11:54:28.912Z,8.18
2023-03-19T11:58:57.950Z,9.75
2023-03-19T12:03:37.975Z,9.57
2023-03-19T12:07:47.541Z,8.00
2023-03-19T12:11:54.828Z,9.48
2023-03-19T12:16:07.766Z,9.23
2023-03-19T12:20:38.275Z,8.63
2023-03-19T12:24:58.662Z,8.55
2023-03-19T12:29:09.854Z,7.75
2023-03-19T12:33:30.373Z,15.95
2023-03-19T12:37:40.529Z,14.40
2023-03-19T12:41:46.216Z,9.05
2023-03-19T12:45:53.865Z,7.95
2023-03-19T12:50:02.840Z,9.32
2023-03-19T12:54:13.678Z,9.65
2023-03-19T12:58:22.411Z,9.98
2023-03-19T13:02:32.298Z,10.38
2023-03-19T13:06:38.276Z,9.15
2023-03-19T13:10:42.693Z,8.27
2023-03-19T13:14:53.739Z,9.05
2023-03-19T13:19:05.607Z,10.57
2023-03-19T13:23:13.746Z,9.23
2023-03-19T13:27:22.497Z,7.70
2023-03-19T13:31:27.588Z,8.57
2023-03-19T13:35:38.858Z,10.63
2023-03-19T13:39:44.183Z,9.30
2023-03-19T13:43:55.926Z,7.28
2023-03-19T13:48:01.145Z,6.80
2023-03-19T13:52:48.128Z,9.85
2023-03-19T13:57:07.825Z,9.60
2023-03-19T14:01:34.313Z,7.53
2023-03-19T14:05:37.858Z,6.45
2023-03-19T14:09:43.505Z,8.32
2023-03-19T14:13:50.470Z,9.13
2023-03-19T14:18:02.344Z,7.68
2023-03-19T14:22:21.787Z,8.60
2023-03-19T14:26:28.875Z,8.65
2023-03-19T14:30:36.569Z,9.23
2023-03-19T14:34:43.880Z,7.32
2023-03-19T14:38:51.866Z,9.57
2023-03-19T14:43:02.091Z,7.80
2023-03-19T14:47:20.597Z,10.10
2023-03-19T14:51:56.762Z,8.48
2023-03-19T14:56:10.786Z,8.40
2023-03-19T15:00:17.498Z,7.68
2023-03-19T15:04:22.930Z,7.05
2023-03-19T15:14:26.150Z,7.15
2023-03-19T15:18:29.813Z,7.38
2023-03-19T15:22:34.541Z,9.20
2023-03-19T15:26:39.377Z,7.10
2023-03-19T15:30:54.902Z,7.93
2023-03-19T15:35:03.446Z,6.80
2023-03-19T15:39:10.463Z,8.55
2023-03-19T15:43:14.612Z,7.18
2023-03-19T15:47:22.952Z,7.80
2023-03-19T15:51:27.374Z,9.85
2023-03-19T15:55:30.831Z,8.10
2023-03-19T15:59:33.937Z,8.27
2023-03-19T16:03:42.641Z,8.27
2023-03-19T16:07:45.899Z,7.20
2023-03-19T16:11:49.181Z,7.30
2023-03-19T16:15:57.120Z,6.07
2023-03-19T16:20:04.807Z,7.68
2023-03-19T16:24:15.847Z,7.25
2023-03-19T16:28:23.802Z,8.05
2023-03-19T16:32:28.404Z,6.95
2023-03-19T16:36:34.075Z,8.77
2023-03-19T16:40:47.946Z,8.25
2023-03-19T16:44:50.890Z,7.68
2023-03-19T16:48:53.791Z,8.15
2023-03-19T16:52:59.614Z,7.88
2023-03-19T16:57:02.613Z,7.00
2023-03-19T17:01:14.340Z,7.88
2023-03-19T17:05:17.976Z,8.15
2023-03-19T17:09:23.452Z,6.32
2023-03-19T17:13:30.128Z,6.43
2023-03-19T17:17:33.432Z,9.60
2023-03-19T17:21:36.627Z,8.18
2023-03-19T17:25:41.712Z,9.55
2023-03-19T17:29:44.814Z,9.75
2023-03-19T17:33:48.045Z,7.95
2023-03-19T17:37:52.738Z,8.05
2023-03-19T17:41:57.514Z,8.63
2023-03-19T17:46:00.651Z,7.80
2023-03-19T17:50:03.704Z,9.38
2023-03-19T17:54:11.608Z,7.60
2023-03-19T17:58:18.356Z,7.88
2023-03-19T18:02:26.968Z,11.10
2023-03-19T18:06:34.521Z,7.25
2023-03-19T18:10:37.547Z,8.75
2023-03-19T18:14:41.976Z,9.35
2023-03-19T18:18:45.159Z,8.63
2023-03-19T18:22:48.406Z,6.95
2023-03-19T18:26:51.381Z,10.10
2023-03-19T18:30:56.052Z,8.82
2023-03-19T18:34:59.448Z,10.93
2023-03-19T18:39:02.651Z,8.95
2023-03-19T18:43:05.577Z,9.75
2023-03-19T18:47:14.895Z,7.63
2023-03-19T18:51:17.860Z,10.68
2023-03-19T18:55:24.267Z,10.50
2023-03-19T18:59:30.405Z,11.20
2023-03-19T19:03:38.286Z,13.95
2023-03-19T19:07:41.229Z,13.02
2023-03-19T19:11:47.609Z,13.57
2023-03-19T19:15:51.273Z,10.88
2023-03-19T19:19:55.857Z,11.95
2023-03-19T19:23:58.852Z,17.02
2023-03-19T19:28:04.214Z,15.48
2023-03-19T19:32:17.277Z,14.30
2023-03-19T19:36:24.746Z,12.80
2023-03-19T19:40:30.524Z,12.82
2023-03-19T19:44:33.558Z,15.05
2023-03-19T19:48:37.137Z,13.50
2023-03-19T19:52:41.411Z,11.90
2023-03-19T19:56:44.462Z,17.35
2023-03-19T20:01:02.377Z,13.88
2023-03-19T20:05:07.319Z,14.15
2023-03-19T20:09:11.616Z,14.45
2023-03-19T20:13:24.951Z,16.85
2023-03-19T20:17:28.298Z,16.52
2023-03-19T20:21:32.078Z,14.98
2023-03-19T20:25:37.681Z,15.32
2023-03-19T20:29:41.506Z,14.73
2023-03-19T20:33:44.688Z,14.27
2023-03-19T20:37:47.858Z,25.25
2023-03-19T20:41:55.277Z,30.17
2023-03-19T20:45:59.581Z,35.40
2023-03-19T20:50:02.746Z,41.42
2023-03-19T20:54:06.573Z,30.98
2023-03-19T20:58:17.651Z,22.67
2023-03-19T21:02:22.741Z,15.00
2023-03-19T21:06:26.317Z,16.08
2023-03-19T21:10:32.788Z,18.88
2023-03-19T21:14:37.184Z,12.07
2023-03-19T21:18:40.288Z,13.80
2023-03-19T21:22:43.434Z,14.95
2023-03-19T21:26:47.109Z,15.07
2023-03-19T21:30:52.309Z,16.77
2023-03-19T21:34:55.974Z,17.67
2023-03-19T21:38:58.894Z,14.85
2023-03-19T21:43:03.894Z,13.68
2023-03-19T21:47:13.084Z,16.38
2023-03-19T21:51:17.328Z,16.30
2023-03-19T21:55:20.834Z,17.58
2023-03-19T21:59:28.109Z,15.27
2023-03-19T22:03:32.507Z,14.50
2023-03-19T22:07:36.374Z,15.68
2023-03-19T22:11:41.897Z,13.52
2023-03-19T22:15:44.947Z,13.32
2023-03-19T22:19:49.247Z,17.85
2023-03-19T22:23:53.010Z,22.63
2023-03-19T22:27:56.009Z,16.88
2023-03-19T22:31:59.236Z,17.83
2023-03-19T22:36:03.937Z,16.65
2023-03-19T22:40:07.827Z,18.35
2023-03-19T22:44:24.175Z,15.57
2023-03-19T22:48:28.362Z,16.25
2023-03-19T22:52:33.210Z,16.20
2023-03-19T22:56:36.149Z,14.50
2023-03-19T23:00:39.514Z,16.98
2023-03-19T23:04:42.713Z,19.33
2023-03-19T23:08:47.163Z,17.52
2023-03-19T23:12:50.138Z,16.30
2023-03-19T23:16:53.746Z,17.10
2023-03-19T23:20:57.792Z,15.30
2023-03-19T23:25:02.461Z,16.42
2023-03-19T23:29:07.845Z,16.80
2023-03-19T23:33:12.528Z,18.10
2023-03-19T23:37:15.759Z,15.15
2023-03-19T23:41:23.878Z,16.20
2023-03-19T23:45:34.300Z,16.98
2023-03-19T23:49:37.828Z,19.33
2023-03-19T23:53:42.048Z,15.00
2023-03-19T23:57:47.369Z,16.20
